Time;durP1;ratioP1;P1;durP2;ratioP2;P2;SDS_P1;SDS_P2;PMS_P1;PMS_P2;Temp;Humidity;BMP_temperature;BMP_pressure;BME280_temperature;BME280_humidity;BME280_pressure;Samples;Min_cycle;Max_cycle;Signal;HPM_P1;HPM_P2
2023/03/30 00:00:32;;;;;;;0.10;0.10;;;11.50;99.90;;;;;;5033831;28;20199;-79
2023/03/30 00:03:01;;;;;;;0.10;0.10;;;11.60;99.90;;;;;;5052026;28;20280;-80
2023/03/30 00:05:30;;;;;;;0.10;0.10;;;11.50;99.90;;;;;;5033618;28;20202;-80
2023/03/30 00:07:56;;;;;;;0.10;0.10;;;11.30;99.90;;;;;;5051984;28;20184;-81
2023/03/30 00:10:22;;;;;;;0.10;0.10;;;11.20;99.90;;;;;;5035207;28;20197;-80
2023/03/30 00:12:52;;;;;;;0.10;0.10;;;11.10;99.90;;;;;;5051247;28;20185;-80
2023/03/30 00:15:20;;;;;;;0.10;0.10;;;11.10;99.90;;;;;;5050275;28;20735;-80
2023/03/30 00:17:46;;;;;;;0.10;0.10;;;11.10;99.90;;;;;;5032526;28;20613;-80
2023/03/30 00:20:12;;;;;;;0.10;0.10;;;11.00;99.90;;;;;;5036528;28;20306;-79
2023/03/30 00:22:40;;;;;;;0.10;0.10;;;10.90;99.90;;;;;;5037506;28;20185;-80
2023/03/30 00:25:08;;;;;;;0.10;0.10;;;10.90;99.90;;;;;;5034870;28;20602;-79
2023/03/30 00:27:34;;;;;;;0.10;0.10;;;10.90;99.90;;;;;;5052440;28;20723;-79
2023/03/30 00:30:00;;;;;;;0.10;0.10;;;10.90;99.90;;;;;;5036003;28;20231;-79
2023/03/30 00:32:26;;;;;;;0.10;0.10;;;10.80;99.90;;;;;;5055252;28;20185;-79
2023/03/30 00:34:51;;;;;;;0.10;0.10;;;10.80;99.90;;;;;;5036479;28;20197;-80
2023/03/30 00:37:17;;;;;;;0.10;0.10;;;10.80;99.90;;;;;;5055408;28;20205;-79
2023/03/30 00:39:43;;;;;;;0.10;0.10;;;10.70;99.90;;;;;;5035239;28;20206;-79
2023/03/30 00:42:18;;;;;;;0.10;0.10;;;10.70;99.90;;;;;;5054147;28;20197;-79
2023/03/30 00:45:17;;;;;;;0.10;0.10;;;10.70;99.90;;;;;;5054384;28;20211;-80
2023/03/30 00:48:08;;;;;;;0.00;0.00;;;10.70;99.90;;;;;;5036533;28;20227;-79
2023/03/30 00:50:39;;;;;;;0.03;0.03;;;10.70;99.90;;;;;;4993945;28;20214;-80
2023/03/30 00:53:15;;;;;;;0.10;0.10;;;10.80;99.90;;;;;;5033433;28;20596;-80
2023/03/30 00:55:41;;;;;;;0.10;0.10;;;10.90;99.90;;;;;;5052001;28;20671;-80
2023/03/30 00:58:08;;;;;;;0.10;0.10;;;10.90;99.90;;;;;;5033471;28;20228;-81
2023/03/30 01:00:37;;;;;;;0.10;0.10;;;11.00;99.90;;;;;;5033447;28;20691;-80
2023/03/30 01:03:10;;;;;;;0.10;0.10;;;11.00;99.90;;;;;;5052429;28;20186;-80
2023/03/30 01:05:38;;;;;;;0.00;0.00;;;11.10;99.90;;;;;;5050015;28;20212;-80
2023/03/30 01:08:06;;;;;;;0.10;0.10;;;11.10;99.90;;;;;;5034532;28;20195;-80
2023/03/30 01:10:35;;;;;;;0.10;0.10;;;11.10;99.90;;;;;;5034187;28;20632;-80
2023/03/30 01:13:01;;;;;;;0.10;0.10;;;11.10;99.90;;;;;;5035604;28;20731;-79
2023/03/30 01:15:31;;;;;;;0.10;0.10;;;11.20;99.90;;;;;;5036263;28;20196;-80
2023/03/30 01:18:07;;;;;;;0.10;0.10;;;11.30;99.90;;;;;;5037049;28;20192;-79
2023/03/30 01:20:50;;;;;;;0.10;0.10;;;11.20;99.90;;;;;;5035431;28;20703;-79
2023/03/30 01:23:26;;;;;;;0.10;0.10;;;11.30;99.90;;;;;;5035501;28;20183;-79
2023/03/30 01:26:12;;;;;;;0.10;0.10;;;11.20;99.90;;;;;;5053639;28;20197;-80
2023/03/30 01:28:47;;;;;;;0.10;0.10;;;11.20;99.90;;;;;;5055910;28;20255;-80
2023/03/30 01:31:28;;;;;;;0.10;0.10;;;11.00;99.90;;;;;;5039322;28;20701;-80
2023/03/30 01:33:59;;;;;;;0.10;0.10;;;11.00;99.90;;;;;;5045730;28;20188;-80
2023/03/30 01:36:56;;;;;;;0.10;0.10;;;11.20;99.90;;;;;;5037827;28;20177;-80
2023/03/30 01:39:54;;;;;;;0.10;0.10;;;11.20;99.90;;;;;;5054570;28;20247;-79
2023/03/30 01:42:32;;;;;;;0.10;0.10;;;11.20;99.90;;;;;;5055844;28;20181;-79
2023/03/30 01:45:15;;;;;;;0.10;0.10;;;11.20;99.90;;;;;;5056658;28;20218;-80
2023/03/30 01:47:57;;;;;;;0.10;0.10;;;11.30;99.90;;;;;;5058261;28;20209;-79
2023/03/30 01:50:25;;;;;;;0.10;0.10;;;11.40;99.90;;;;;;5047159;28;20217;-79
2023/03/30 01:53:00;;;;;;;0.10;0.10;;;11.50;99.90;;;;;;5056680;28;20247;-80
2023/03/30 01:55:42;;;;;;;0.10;0.10;;;11.50;99.90;;;;;;5054952;28;20531;-80
2023/03/30 01:58:32;;;;;;;0.10;0.10;;;11.50;99.90;;;;;;5038162;28;20192;-79
2023/03/30 02:00:59;;;;;;;0.10;0.10;;;11.60;99.90;;;;;;5035998;28;20212;-80
2023/03/30 02:03:35;;;;;;;0.10;0.10;;;11.60;99.90;;;;;;5037094;28;20189;-79
2023/03/30 02:06:06;;;;;;;0.10;0.10;;;11.60;99.90;;;;;;5039680;28;20220;-79
2023/03/30 02:08:35;;;;;;;0.10;0.10;;;11.60;99.90;;;;;;5038008;28;20189;-79
2023/03/30 02:11:02;;;;;;;0.10;0.10;;;11.50;99.90;;;;;;5036442;28;20231;-81
2023/03/30 02:13:30;;;;;;;0.10;0.10;;;11.50;99.90;;;;;;5036956;28;20185;-81
2023/03/30 02:16:07;;;;;;;0.10;0.10;;;11.30;99.90;;;;;;5055268;28;20201;-81
2023/03/30 02:18:34;;;;;;;0.10;0.10;;;11.30;99.90;;;;;;5055112;28;21223;-81
2023/03/30 02:21:00;;;;;;;0.10;0.10;;;11.40;99.90;;;;;;5039079;28;20621;-81
2023/03/30 02:23:32;;;;;;;0.10;0.10;;;11.30;99.90;;;;;;5055618;28;20195;-80
2023/03/30 02:25:58;;;;;;;0.10;0.10;;;11.00;99.90;;;;;;5053932;28;20263;-80
2023/03/30 02:28:24;;;;;;;0.10;0.10;;;10.90;99.90;;;;;;5036307;28;20639;-81
2023/03/30 02:30:50;;;;;;;0.10;0.10;;;10.80;99.90;;;;;;5037999;28;20210;-82
2023/03/30 02:33:57;;;;;;;0.10;0.10;;;10.70;99.90;;;;;;5035267;28;20188;-80
2023/03/30 02:36:44;;;;;;;0.10;0.10;;;10.90;99.90;;;;;;5035384;28;20555;-80
2023/03/30 02:39:23;;;;;;;0.10;0.10;;;11.00;99.90;;;;;;5035555;28;20285;-80
2023/03/30 02:42:11;;;;;;;0.10;0.10;;;11.10;99.90;;;;;;5037064;28;20191;-80
2023/03/30 02:44:40;;;;;;;0.10;0.10;;;11.30;99.90;;;;;;5054260;28;20212;-80
2023/03/30 02:47:54;;;;;;;0.10;0.10;;;11.40;99.90;;;;;;5036015;28;20302;-80
2023/03/30 02:50:30;;;;;;;0.10;0.10;;;11.50;99.90;;;;;;5052072;28;20222;-80
2023/03/30 02:53:15;;;;;;;0.10;0.10;;;11.50;99.90;;;;;;5035468;28;20187;-80
2023/03/30 02:55:56;;;;;;;0.10;0.10;;;11.60;99.90;;;;;;5055177;28;20732;-81
2023/03/30 02:58:37;;;;;;;0.10;0.10;;;11.60;99.90;;;;;;5037571;28;20194;-81
2023/03/30 03:01:21;;;;;;;0.10;0.10;;;11.70;99.90;;;;;;5050719;28;20203;-80
2023/03/30 03:03:49;;;;;;;0.10;0.10;;;11.70;99.90;;;;;;5037512;28;20191;-80
2023/03/30 03:06:16;;;;;;;0.10;0.10;;;11.70;99.90;;;;;;5034804;28;20217;-80
2023/03/30 03:08:46;;;;;;;0.10;0.10;;;11.70;99.90;;;;;;5036905;28;20211;-79
2023/03/30 03:11:12;;;;;;;0.10;0.10;;;11.70;99.90;;;;;;5054035;28;20203;-80
2023/03/30 03:13:37;;;;;;;0.10;0.10;;;11.70;99.90;;;;;;5034948;28;20791;-80
2023/03/30 03:16:04;;;;;;;0.10;0.10;;;11.70;99.90;;;;;;5035026;28;20200;-80
2023/03/30 03:18:30;;;;;;;0.10;0.10;;;11.60;99.90;;;;;;5033689;28;20186;-80
2023/03/30 03:20:57;;;;;;;0.03;0.03;;;11.60;99.90;;;;;;5032583;28;20213;-79
2023/03/30 03:23:22;;;;;;;0.10;0.10;;;11.40;99.90;;;;;;5053536;28;20296;-80
2023/03/30 03:25:48;;;;;;;0.10;0.10;;;11.10;99.90;;;;;;5035758;28;20292;-79
2023/03/30 03:28:14;;;;;;;0.10;0.10;;;10.90;99.90;;;;;;5034407;28;20296;-81
2023/03/30 03:30:40;;;;;;;0.10;0.10;;;10.90;99.90;;;;;;5054871;28;20229;-79
2023/03/30 03:33:06;;;;;;;0.10;0.10;;;10.70;99.90;;;;;;5038810;28;20192;-79
2023/03/30 03:35:31;;;;;;;0.10;0.10;;;10.80;99.90;;;;;;5037703;28;20562;-80
2023/03/30 03:37:57;;;;;;;0.10;0.10;;;10.90;99.90;;;;;;5037598;28;20300;-79
2023/03/30 03:40:22;;;;;;;0.10;0.10;;;11.10;99.90;;;;;;5036907;28;20220;-79
2023/03/30 03:42:48;;;;;;;0.00;0.00;;;11.20;99.90;;;;;;5039211;28;20195;-79
2023/03/30 03:45:13;;;;;;;0.10;0.10;;;11.30;99.90;;;;;;5054000;28;20262;-80
2023/03/30 03:47:39;;;;;;;0.10;0.10;;;11.30;99.90;;;;;;5039262;28;20717;-80
2023/03/30 03:50:08;;;;;;;0.10;0.10;;;11.30;99.90;;;;;;5036033;28;20210;-79
2023/03/30 03:52:34;;;;;;;0.10;0.10;;;11.10;99.90;;;;;;5053393;28;20242;-79
2023/03/30 03:55:00;;;;;;;0.10;0.10;;;11.10;99.90;;;;;;5052809;28;20221;-80
2023/03/30 03:57:26;;;;;;;0.07;0.07;;;11.20;99.90;;;;;;5034015;28;20219;-79
2023/03/30 03:59:53;;;;;;;0.10;0.10;;;11.20;99.90;;;;;;5027576;28;20296;-80
2023/03/30 04:02:19;;;;;;;0.10;0.10;;;11.20;99.90;;;;;;5026921;28;20847;-79
2023/03/30 04:04:45;;;;;;;0.10;0.10;;;11.40;99.90;;;;;;5052564;28;20236;-79
2023/03/30 04:07:10;;;;;;;0.10;0.10;;;11.40;99.90;;;;;;5033736;28;20208;-80
2023/03/30 04:09:36;;;;;;;0.10;0.10;;;11.40;99.90;;;;;;5026282;28;21591;-80
2023/03/30 04:12:01;;;;;;;0.10;0.10;;;11.30;99.90;;;;;;5053042;28;20194;-80
2023/03/30 04:14:27;;;;;;;0.10;0.10;;;11.30;99.90;;;;;;5035722;28;20177;-80
2023/03/30 04:16:56;;;;;;;0.10;0.10;;;11.30;99.90;;;;;;5037298;28;20185;-80
2023/03/30 04:19:24;;;;;;;0.10;0.10;;;11.30;99.90;;;;;;5052969;28;20185;-80
2023/03/30 04:21:50;;;;;;;0.10;0.10;;;11.50;99.90;;;;;;5035421;28;20589;-80
2023/03/30 04:24:16;;;;;;;0.10;0.10;;;11.60;99.90;;;;;;5035012;28;20313;-80
2023/03/30 04:26:47;;;;;;;0.10;0.10;;;11.60;99.90;;;;;;5051942;28;20187;-80
2023/03/30 04:29:15;;;;;;;0.10;0.10;;;11.70;99.90;;;;;;5049877;28;20283;-80
2023/03/30 04:31:45;;;;;;;0.10;0.10;;;11.70;99.90;;;;;;5034329;28;20286;-80
2023/03/30 04:34:11;;;;;;;0.10;0.10;;;11.80;99.90;;;;;;5034961;28;20177;-80
2023/03/30 04:36:37;;;;;;;0.10;0.10;;;11.80;99.90;;;;;;5042186;28;20193;-80
2023/03/30 04:39:05;;;;;;;0.10;0.10;;;11.70;99.90;;;;;;5033654;28;20242;-80
2023/03/30 04:41:32;;;;;;;0.10;0.10;;;11.60;99.90;;;;;;5034216;28;20256;-81
2023/03/30 04:43:59;;;;;;;0.10;0.10;;;11.60;99.90;;;;;;5052453;28;20577;-81
2023/03/30 04:46:25;;;;;;;0.10;0.10;;;11.70;99.90;;;;;;5034813;28;20206;-80
2023/03/30 04:48:50;;;;;;;0.10;0.10;;;11.80;99.90;;;;;;5034514;28;20236;-81
2023/03/30 04:51:16;;;;;;;0.10;0.10;;;11.80;99.90;;;;;;5034575;28;20708;-81
2023/03/30 04:53:42;;;;;;;0.10;0.10;;;11.90;99.90;;;;;;5035621;28;20201;-81
2023/03/30 04:56:07;;;;;;;0.10;0.10;;;12.00;99.90;;;;;;5036239;28;20191;-81
2023/03/30 04:58:33;;;;;;;0.10;0.10;;;12.10;99.90;;;;;;5054021;28;20580;-80
2023/03/30 05:00:58;;;;;;;0.10;0.10;;;12.10;99.90;;;;;;5052305;28;20209;-79
2023/03/30 05:03:24;;;;;;;0.10;0.10;;;12.20;99.90;;;;;;5038542;28;20188;-80
2023/03/30 05:05:49;;;;;;;0.03;0.03;;;12.20;99.90;;;;;;5037572;28;20220;-80
2023/03/30 05:08:15;;;;;;;0.10;0.10;;;12.20;99.90;;;;;;5058040;28;20257;-79
2023/03/30 05:10:40;;;;;;;0.10;0.10;;;12.20;99.90;;;;;;5057337;28;20308;-80
2023/03/30 05:13:06;;;;;;;0.10;0.10;;;12.10;99.90;;;;;;5038460;28;20183;-80
2023/03/30 05:15:32;;;;;;;0.10;0.10;;;12.20;99.90;;;;;;5054168;28;20860;-79
2023/03/30 05:17:58;;;;;;;0.10;0.10;;;12.20;99.90;;;;;;5035836;28;20672;-80
2023/03/30 05:20:24;;;;;;;0.10;0.10;;;12.20;99.90;;;;;;5055929;28;20251;-82
2023/03/30 05:22:52;;;;;;;0.10;0.10;;;12.10;99.90;;;;;;5058868;28;20204;-82
2023/03/30 05:25:18;;;;;;;0.10;0.10;;;12.10;99.90;;;;;;5054847;28;20210;-82
2023/03/30 05:27:44;;;;;;;0.10;0.10;;;12.10;99.90;;;;;;5040670;28;20191;-82
2023/03/30 05:30:10;;;;;;;0.10;0.10;;;12.10;99.90;;;;;;5039166;28;20217;-82
2023/03/30 05:32:36;;;;;;;0.10;0.10;;;12.10;99.90;;;;;;5041573;28;20613;-82
2023/03/30 05:35:02;;;;;;;0.10;0.10;;;12.00;99.90;;;;;;5037009;28;20336;-82
2023/03/30 05:37:27;;;;;;;0.10;0.10;;;12.00;99.90;;;;;;5034926;28;20192;-83
2023/03/30 05:39:53;;;;;;;0.10;0.10;;;12.00;99.90;;;;;;5060459;28;20212;-83
2023/03/30 05:42:19;;;;;;;0.10;0.10;;;12.00;99.90;;;;;;5058319;28;20179;-82
2023/03/30 05:44:44;;;;;;;0.10;0.10;;;12.00;99.90;;;;;;5042722;28;20206;-84
2023/03/30 05:47:10;;;;;;;0.10;0.10;;;12.00;99.90;;;;;;5043399;28;20189;-83
2023/03/30 05:49:35;;;;;;;0.10;0.10;;;11.90;99.90;;;;;;5040252;28;20270;-82
2023/03/30 05:52:01;;;;;;;0.10;0.10;;;11.90;99.90;;;;;;5054686;28;20204;-81
2023/03/30 05:54:26;;;;;;;0.10;0.10;;;12.00;99.90;;;;;;5041320;28;20977;-82
2023/03/30 05:56:52;;;;;;;0.10;0.10;;;12.00;99.90;;;;;;5041733;28;20235;-82
2023/03/30 05:59:18;;;;;;;0.10;0.10;;;12.00;99.90;;;;;;5042124;28;20317;-82
2023/03/30 06:01:44;;;;;;;0.10;0.10;;;12.00;99.90;;;;;;5041758;28;20198;-82
2023/03/30 06:04:10;;;;;;;0.10;0.10;;;11.90;99.90;;;;;;5059015;28;20178;-81
2023/03/30 06:06:36;;;;;;;0.10;0.10;;;11.60;99.90;;;;;;5057500;28;20223;-82
2023/03/30 06:09:03;;;;;;;0.10;0.10;;;11.60;99.90;;;;;;5040322;28;20181;-81
2023/03/30 06:11:29;;;;;;;0.10;0.10;;;11.70;99.90;;;;;;5053414;28;20776;-81
2023/03/30 06:13:54;;;;;;;0.10;0.10;;;11.80;99.90;;;;;;5039222;28;20186;-81
2023/03/30 06:16:20;;;;;;;0.10;0.10;;;11.80;99.90;;;;;;5038728;28;20243;-82
2023/03/30 06:18:46;;;;;;;0.10;0.10;;;11.70;99.90;;;;;;5040596;28;20297;-82
2023/03/30 06:21:11;;;;;;;0.10;0.10;;;11.70;99.90;;;;;;5033500;28;20208;-82
2023/03/30 06:23:39;;;;;;;0.10;0.10;;;11.70;99.90;;;;;;5042193;28;20199;-82
2023/03/30 06:26:06;;;;;;;0.10;0.10;;;11.70;99.90;;;;;;5039808;28;20209;-82
2023/03/30 06:28:32;;;;;;;0.10;0.10;;;11.80;99.90;;;;;;5035685;28;20197;-83
2023/03/30 06:31:00;;;;;;;0.10;0.10;;;11.90;99.90;;;;;;5036274;28;20201;-83
2023/03/30 06:33:26;;;;;;;0.10;0.10;;;11.80;99.90;;;;;;5037012;28;20689;-83
2023/03/30 06:35:53;;;;;;;0.10;0.10;;;11.90;99.90;;;;;;5037460;28;20188;-81
2023/03/30 06:38:20;;;;;;;0.00;0.00;;;11.70;99.90;;;;;;5035116;28;20207;-81
2023/03/30 06:40:46;;;;;;;0.10;0.10;;;11.90;99.90;;;;;;5054081;28;20216;-80
2023/03/30 06:43:17;;;;;;;0.10;0.10;;;12.00;99.90;;;;;;5053118;28;20229;-80
2023/03/30 06:45:51;;;;;;;0.10;0.10;;;11.80;99.90;;;;;;5036294;28;20547;-81
2023/03/30 06:48:18;;;;;;;0.10;0.10;;;11.80;99.90;;;;;;5051552;28;20194;-81
2023/03/30 06:50:48;;;;;;;0.10;0.10;;;11.80;99.90;;;;;;5051854;28;20335;-82
2023/03/30 06:53:13;;;;;;;0.10;0.10;;;11.90;99.90;;;;;;5025395;28;20327;-82
2023/03/30 06:55:39;;;;;;;0.00;0.00;;;11.90;99.90;;;;;;5034930;28;20284;-81
2023/03/30 06:58:05;;;;;;;0.10;0.10;;;12.00;99.90;;;;;;5033560;28;20718;-82
2023/03/30 07:00:30;;;;;;;0.10;0.10;;;12.10;99.90;;;;;;5052560;28;20241;-81
2023/03/30 07:02:56;;;;;;;0.10;0.10;;;12.20;99.90;;;;;;5041632;28;20213;-81
2023/03/30 07:05:27;;;;;;;0.00;0.00;;;12.10;99.90;;;;;;5036613;28;20213;-81
2023/03/30 07:07:53;;;;;;;0.10;0.10;;;12.10;99.90;;;;;;5036142;28;20318;-80
2023/03/30 07:10:20;;;;;;;0.10;0.10;;;12.20;99.90;;;;;;5028902;28;20209;-79
2023/03/30 07:12:46;;;;;;;0.10;0.10;;;12.30;99.90;;;;;;5035305;28;20177;-81
2023/03/30 07:15:12;;;;;;;0.10;0.10;;;12.10;99.90;;;;;;5034533;28;21242;-80
2023/03/30 07:17:38;;;;;;;0.10;0.10;;;12.20;99.90;;;;;;5033931;28;20191;-80
2023/03/30 07:20:05;;;;;;;0.10;0.10;;;12.00;99.90;;;;;;5035444;28;20201;-81
2023/03/30 07:22:30;;;;;;;0.10;0.10;;;12.00;99.90;;;;;;5054108;28;20673;-81
2023/03/30 07:24:57;;;;;;;0.10;0.10;;;11.80;99.90;;;;;;5029294;28;20205;-80
2023/03/30 07:27:23;;;;;;;0.10;0.10;;;11.70;99.90;;;;;;5054531;28;20186;-81
2023/03/30 07:29:49;;;;;;;0.10;0.10;;;11.80;99.90;;;;;;5034756;28;20209;-83
2023/03/30 07:32:16;;;;;;;0.10;0.10;;;12.00;99.90;;;;;;5033238;28;20189;-86
2023/03/30 07:34:43;;;;;;;0.10;0.10;;;12.20;99.90;;;;;;5036801;28;20201;-80
2023/03/30 07:37:09;;;;;;;0.00;0.00;;;12.40;99.90;;;;;;5032052;28;20462;-80
2023/03/30 07:39:35;;;;;;;0.10;0.10;;;12.60;99.90;;;;;;5053201;28;20191;-80
2023/03/30 07:42:01;;;;;;;0.10;0.10;;;12.70;99.90;;;;;;5032255;28;21156;-80
2023/03/30 07:44:29;;;;;;;0.10;0.10;;;12.90;99.90;;;;;;5035380;28;20187;-80
2023/03/30 07:46:57;;;;;;;0.10;0.10;;;12.90;99.90;;;;;;5035137;28;20192;-83
2023/03/30 07:49:22;;;;;;;0.07;0.07;;;13.00;99.90;;;;;;5033824;28;20191;-81
2023/03/30 07:51:48;;;;;;;0.10;0.10;;;13.10;99.90;;;;;;5033996;28;20186;-80
2023/03/30 07:54:14;;;;;;;0.00;0.00;;;13.20;99.90;;;;;;5053006;28;20201;-81
2023/03/30 07:56:41;;;;;;;0.10;0.10;;;13.20;99.90;;;;;;5033712;28;20199;-81
2023/03/30 07:59:08;;;;;;;0.10;0.10;;;13.20;99.90;;;;;;5026015;28;20216;-81
2023/03/30 08:01:35;;;;;;;0.10;0.10;;;13.20;99.90;;;;;;5034573;28;20298;-81
2023/03/30 08:04:01;;;;;;;0.10;0.10;;;13.30;99.90;;;;;;5053002;28;20655;-80
2023/03/30 08:06:27;;;;;;;0.00;0.00;;;13.20;99.90;;;;;;5038294;28;20203;-80
2023/03/30 08:08:54;;;;;;;0.10;0.10;;;13.30;99.90;;;;;;5032836;28;20195;-80
2023/03/30 08:11:20;;;;;;;0.10;0.10;;;13.40;99.90;;;;;;5037073;28;21022;-81
2023/03/30 08:13:45;;;;;;;0.10;0.10;;;13.50;99.90;;;;;;5035771;28;20266;-80
2023/03/30 08:16:11;;;;;;;0.10;0.10;;;13.80;99.90;;;;;;5035388;28;20193;-80
2023/03/30 08:18:40;;;;;;;0.10;0.10;;;14.00;99.90;;;;;;5036162;28;20188;-80
2023/03/30 08:21:05;;;;;;;0.10;0.10;;;14.20;99.90;;;;;;5037264;28;20215;-80
2023/03/30 08:23:31;;;;;;;0.10;0.10;;;14.30;99.90;;;;;;5038344;28;20276;-80
2023/03/30 08:25:58;;;;;;;0.10;0.10;;;14.50;99.90;;;;;;5053989;28;20215;-80
2023/03/30 08:28:24;;;;;;;0.10;0.10;;;14.60;99.90;;;;;;5038640;28;20241;-80
2023/03/30 08:30:50;;;;;;;0.10;0.10;;;15.00;99.90;;;;;;5035682;28;20193;-80
2023/03/30 08:33:16;;;;;;;0.10;0.10;;;15.30;99.90;;;;;;5055657;28;20178;-80
2023/03/30 08:35:46;;;;;;;0.10;0.10;;;15.50;99.90;;;;;;5056638;28;20189;-81
2023/03/30 08:38:16;;;;;;;0.10;0.10;;;15.80;99.90;;;;;;5055985;28;20185;-81
2023/03/30 08:40:43;;;;;;;0.10;0.10;;;15.90;99.90;;;;;;5059290;28;20888;-80
2023/03/30 08:43:21;;;;;;;0.10;0.10;;;16.00;99.90;;;;;;5039963;28;20208;-80
2023/03/30 08:45:47;;;;;;;0.10;0.10;;;16.00;99.90;;;;;;5038800;28;20659;-81
2023/03/30 08:48:21;;;;;;;0.10;0.10;;;15.90;99.90;;;;;;5054846;28;20187;-81
2023/03/30 08:51:00;;;;;;;0.10;0.10;;;16.00;99.90;;;;;;5039322;28;20269;-81
2023/03/30 08:53:31;;;;;;;0.10;0.10;;;16.00;99.90;;;;;;5039125;28;20555;-81
2023/03/30 08:56:20;;;;;;;0.10;0.10;;;16.00;99.90;;;;;;5056648;28;20710;-80
2023/03/30 08:59:02;;;;;;;0.10;0.10;;;15.90;99.90;;;;;;5040258;28;20177;-81
2023/03/30 09:01:44;;;;;;;0.10;0.10;;;15.90;99.90;;;;;;5056147;28;20312;-81
2023/03/30 09:04:24;;;;;;;0.10;0.10;;;15.70;99.90;;;;;;5054871;28;20239;-80
2023/03/30 09:06:53;;;;;;;0.10;0.10;;;15.50;99.90;;;;;;5038103;28;20181;-81
2023/03/30 09:09:21;;;;;;;0.10;0.10;;;15.40;99.90;;;;;;5037870;28;20189;-81
2023/03/30 09:11:54;;;;;;;0.10;0.10;;;15.20;99.90;;;;;;5035269;28;20666;-81
2023/03/30 09:14:36;;;;;;;0.10;0.10;;;15.10;99.90;;;;;;5036924;28;20185;-80
2023/03/30 09:17:12;;;;;;;0.10;0.10;;;15.10;99.90;;;;;;5057607;28;20192;-80
2023/03/30 09:19:53;;;;;;;0.10;0.10;;;15.10;99.90;;;;;;5036932;28;20177;-81
2023/03/30 09:22:19;;;;;;;0.10;0.10;;;15.10;99.90;;;;;;5056256;28;20194;-80
2023/03/30 09:24:45;;;;;;;16.03;14.93;;;15.10;99.90;;;;;;5053457;28;20587;-80
2023/03/30 09:27:17;;;;;;;0.10;0.10;;;15.10;99.90;;;;;;5046878;28;20189;-81
2023/03/30 09:29:47;;;;;;;0.10;0.10;;;15.20;99.90;;;;;;5036006;28;20216;-80
2023/03/30 09:32:37;;;;;;;0.10;0.10;;;15.10;99.90;;;;;;5039890;28;20678;-80
2023/03/30 09:35:17;;;;;;;0.10;0.10;;;15.20;99.90;;;;;;5039055;28;20676;-80
2023/03/30 09:37:43;;;;;;;0.10;0.10;;;15.30;99.90;;;;;;5038326;28;20188;-81
2023/03/30 09:40:35;;;;;;;0.10;0.10;;;15.50;99.90;;;;;;5050394;28;20202;-80
2023/03/30 09:43:13;;;;;;;0.10;0.10;;;15.70;99.90;;;;;;5058044;28;20181;-80
2023/03/30 09:45:41;;;;;;;0.10;0.10;;;15.90;99.90;;;;;;5036663;28;20201;-80
2023/03/30 09:48:08;;;;;;;0.10;0.10;;;16.00;99.90;;;;;;5037362;28;20713;-80
2023/03/30 09:50:39;;;;;;;0.10;0.10;;;16.10;99.90;;;;;;5037100;28;20304;-80
2023/03/30 09:53:28;;;;;;;0.10;0.10;;;16.30;99.90;;;;;;5038451;28;20270;-81
2023/03/30 09:56:06;;;;;;;0.10;0.10;;;16.40;99.90;;;;;;5036400;28;20204;-80
2023/03/30 09:58:33;;;;;;;0.10;0.10;;;16.30;99.90;;;;;;5053655;28;20226;-80
2023/03/30 10:01:11;;;;;;;0.10;0.10;;;16.30;99.90;;;;;;5039086;28;20703;-80
2023/03/30 10:03:38;;;;;;;0.10;0.10;;;16.20;99.90;;;;;;5036386;28;20254;-81
2023/03/30 10:06:14;;;;;;;0.10;0.10;;;16.10;99.90;;;;;;5054585;28;20255;-81
2023/03/30 10:08:50;;;;;;;0.10;0.10;;;16.00;99.90;;;;;;5036872;28;20251;-81
2023/03/30 10:11:21;;;;;;;0.10;0.10;;;16.20;99.90;;;;;;5037140;28;20224;-82
2023/03/30 10:13:49;;;;;;;0.10;0.10;;;16.40;99.90;;;;;;5038467;28;20631;-81
2023/03/30 10:16:23;;;;;;;0.10;0.10;;;17.10;99.90;;;;;;5055364;28;20710;-82
2023/03/30 10:18:54;;;;;;;0.10;0.10;;;17.40;99.90;;;;;;5037970;28;20192;-82
2023/03/30 10:21:25;;;;;;;0.10;0.10;;;17.70;99.90;;;;;;5037743;28;20213;-82
2023/03/30 10:24:23;;;;;;;0.10;0.10;;;17.90;99.90;;;;;;5037429;28;20233;-82
2023/03/30 10:26:56;;;;;;;0.10;0.10;;;17.70;99.90;;;;;;5055789;28;20258;-82
2023/03/30 10:29:24;;;;;;;0.10;0.10;;;17.70;99.90;;;;;;5035759;28;20197;-82
2023/03/30 10:32:30;;;;;;;0.10;0.10;;;18.30;99.90;;;;;;5036048;28;20189;-82
2023/03/30 10:35:00;;;;;;;0.10;0.10;;;19.00;99.90;;;;;;4966244;28;20625;-82
2023/03/30 10:37:34;;;;;;;0.10;0.10;;;18.90;99.90;;;;;;5025597;28;20193;-82
2023/03/30 10:40:10;;;;;;;0.10;0.10;;;18.80;99.90;;;;;;5030938;28;20213;-82
2023/03/30 10:42:36;;;;;;;0.40;0.40;;;18.50;99.90;;;;;;5057278;28;20181;-82
2023/03/30 10:45:05;;;;;;;0.10;0.10;;;18.00;99.90;;;;;;5035061;28;20251;-80
2023/03/30 10:47:37;;;;;;;0.10;0.10;;;17.70;99.90;;;;;;5054259;28;20188;-80
2023/03/30 10:50:22;;;;;;;0.10;0.10;;;17.60;99.90;;;;;;5034640;28;20202;-80
2023/03/30 10:52:59;;;;;;;0.10;0.10;;;17.70;99.90;;;;;;5054233;28;21171;-80
2023/03/30 10:56:30;;;;;;;0.10;0.10;;;17.80;99.90;;;;;;5029260;28;20268;-80
2023/03/30 10:58:55;;;;;;;0.10;0.10;;;18.00;99.90;;;;;;4922364;28;20313;-80
2023/03/30 11:01:34;;;;;;;0.10;0.10;;;18.40;99.90;;;;;;4930071;28;20290;-80
2023/03/30 11:04:06;;;;;;;0.10;0.10;;;18.70;99.90;;;;;;5008161;28;20711;-81
2023/03/30 11:06:37;;;;;;;0.10;0.10;;;18.40;99.90;;;;;;5038340;28;20234;-80
2023/03/30 11:09:04;;;;;;;0.10;0.10;;;18.00;99.90;;;;;;5045412;28;20193;-81
2023/03/30 11:11:41;;;;;;;0.10;0.10;;;18.00;99.90;;;;;;5053965;28;20612;-80
2023/03/30 11:14:15;;;;;;;0.10;0.10;;;17.90;99.90;;;;;;5054212;28;20665;-81
2023/03/30 11:16:54;;;;;;;0.10;0.10;;;17.60;99.90;;;;;;5035916;28;20227;-80
2023/03/30 11:19:21;;;;;;;0.10;0.10;;;17.30;99.90;;;;;;5052349;28;20236;-81
2023/03/30 11:21:59;;;;;;;0.10;0.10;;;17.20;99.90;;;;;;5053522;28;20285;-80
2023/03/30 11:24:27;;;;;;;0.10;0.10;;;17.20;99.90;;;;;;5053396;28;20888;-80
2023/03/30 11:26:56;;;;;;;0.10;0.10;;;17.10;99.90;;;;;;5038050;28;20205;-80
2023/03/30 11:29:42;;;;;;;0.10;0.10;;;17.10;99.90;;;;;;5035056;28;20198;-80
2023/03/30 11:32:10;;;;;;;0.10;0.10;;;17.80;99.90;;;;;;5036030;28;20216;-80
2023/03/30 11:34:58;;;;;;;0.10;0.10;;;18.30;99.90;;;;;;5053720;28;20201;-80
2023/03/30 11:37:45;;;;;;;0.10;0.10;;;18.30;99.90;;;;;;5028865;28;20198;-80
2023/03/30 11:40:39;;;;;;;0.10;0.10;;;18.40;99.90;;;;;;5033336;28;20240;-80
2023/03/30 11:43:07;;;;;;;0.10;0.10;;;18.40;99.90;;;;;;5022968;28;20678;-80
2023/03/30 11:46:02;;;;;;;0.10;0.10;;;18.30;99.90;;;;;;5038963;28;20297;-80
2023/03/30 11:48:46;;;;;;;0.10;0.10;;;18.20;99.90;;;;;;5035233;28;20178;-80
2023/03/30 11:51:21;;;;;;;0.10;0.10;;;18.20;99.90;;;;;;5054346;28;20284;-80
2023/03/30 11:54:16;;;;;;;0.10;0.10;;;18.00;99.90;;;;;;5037513;28;20200;-80
2023/03/30 11:57:16;;;;;;;0.10;0.10;;;17.80;99.90;;;;;;5021173;28;20735;-80
2023/03/30 12:00:09;;;;;;;0.10;0.10;;;17.80;99.90;;;;;;5054754;28;20169;-80
2023/03/30 12:03:13;;;;;;;0.10;0.10;;;17.70;99.90;;;;;;5034648;28;20250;-80
2023/03/30 12:05:47;;;;;;;0.10;0.10;;;18.10;99.90;;;;;;5027631;28;20321;-81
2023/03/30 12:08:50;;;;;;;0.10;0.10;;;18.00;99.90;;;;;;5051667;28;20181;-81
2023/03/30 12:11:45;;;;;;;0.10;0.10;;;18.30;99.90;;;;;;5026917;28;20197;-82
2023/03/30 12:14:36;;;;;;;0.10;0.10;;;18.10;99.90;;;;;;5036933;28;20173;-82
2023/03/30 12:17:31;;;;;;;0.10;0.10;;;18.40;99.90;;;;;;5035732;28;20205;-82
2023/03/30 12:20:06;;;;;;;0.10;0.10;;;18.60;99.90;;;;;;5054923;28;20201;-83
2023/03/30 12:22:51;;;;;;;0.10;0.10;;;18.40;99.90;;;;;;5055992;28;20185;-82
2023/03/30 12:25:29;;;;;;;0.10;0.10;;;18.40;99.90;;;;;;5034138;28;20201;-83
2023/03/30 12:27:57;;;;;;;0.10;0.10;;;18.50;99.90;;;;;;5038733;28;20184;-85
2023/03/30 12:30:53;;;;;;;0.10;0.10;;;18.50;99.90;;;;;;5033212;28;20211;-84
2023/03/30 12:33:35;;;;;;;0.10;0.10;;;18.30;99.90;;;;;;5029801;28;20184;-83
2023/03/30 12:36:24;;;;;;;0.10;0.10;;;17.90;99.90;;;;;;5048627;28;20796;-84
2023/03/30 12:38:56;;;;;;;0.10;0.10;;;17.60;99.90;;;;;;5034757;28;20185;-84
2023/03/30 12:41:25;;;;;;;0.10;0.10;;;16.70;99.90;;;;;;5033125;28;20308;-83
2023/03/30 12:44:13;;;;;;;0.10;0.10;;;15.00;99.90;;;;;;5037391;28;20604;-82
2023/03/30 12:46:57;;;;;;;0.10;0.10;;;14.10;99.90;;;;;;5035313;28;20689;-83
2023/03/30 12:49:32;;;;;;;0.10;0.10;;;13.90;99.90;;;;;;5031417;28;20195;-83
2023/03/30 12:52:14;;;;;;;0.10;0.10;;;13.90;99.90;;;;;;5033972;28;20810;-83
2023/03/30 12:55:11;;;;;;;0.10;0.10;;;14.40;99.90;;;;;;5041414;28;20184;-83
2023/03/30 12:57:54;;;;;;;0.10;0.10;;;15.00;99.90;;;;;;5040464;28;20269;-82
2023/03/30 13:00:29;;;;;;;0.10;0.10;;;15.70;99.90;;;;;;5056627;28;20229;-83
2023/03/30 13:03:48;;;;;;;0.10;0.10;;;16.10;99.90;;;;;;5037973;28;20197;-83
2023/03/30 13:06:29;;;;;;;0.10;0.10;;;16.20;99.90;;;;;;4999503;28;20225;-82
2023/03/30 13:09:11;;;;;;;0.10;0.10;;;16.10;99.90;;;;;;5051659;28;20672;-83
2023/03/30 13:11:48;;;;;;;0.10;0.10;;;15.90;99.90;;;;;;5027633;28;20212;-83
2023/03/30 13:14:38;;;;;;;0.10;0.10;;;15.80;99.90;;;;;;5033851;28;20219;-83